Terminal Aerodrome Forecast
Issued by NWS Goodland, KS

Home | Current Version | Previous Version | Text Only | Print | Product List | Glossary On
Versions: 1 2 3 4 5 6 7 8 9 10 11 12 13 14
000
FTUS43 KGLD 210608 AAA
TAFGLD
TAF AMD
KGLD 210608Z 2106/2206 01010KT P6SM OVC008
     FM211200 01010KT 5SM -FZDZ BR OVC008
     FM211700 02014G23KT 3SM -FZDZSN OVC003
     FM211900 01024G32KT 1 1/2SM -SN BLSN OVC003
     FM220000 35028G40KT 1/2SM SN BLSN OVC003=

USA.gov is the U.S. government's official web portal to all federal, state and local government web resources and services.